createdAt,value
2019-02-09T00:00:56.165Z,57.67
2019-02-09T00:03:27.320Z,57.67
2019-02-09T00:05:58.598Z,57.69
2019-02-09T00:08:29.824Z,57.67
2019-02-09T00:11:00.974Z,57.69
2019-02-09T00:13:32.278Z,57.68
2019-02-09T00:16:03.501Z,57.70
2019-02-09T00:18:34.791Z,57.75
2019-02-09T00:21:06.413Z,57.71
2019-02-09T00:23:37.583Z,57.69
2019-02-09T00:26:08.750Z,57.62
2019-02-09T00:28:39.882Z,57.62
2019-02-09T00:31:11.075Z,57.62
2019-02-09T00:33:42.184Z,57.62
2019-02-09T00:36:13.481Z,57.64
2019-02-09T00:38:44.696Z,57.63
2019-02-09T00:41:15.846Z,57.54
2019-02-09T00:43:46.969Z,57.57
2019-02-09T00:46:18.138Z,57.61
2019-02-09T00:48:49.367Z,57.61
2019-02-09T00:51:20.528Z,57.54
2019-02-09T00:53:51.765Z,57.57
2019-02-09T00:56:22.987Z,57.55
2019-02-09T00:58:54.152Z,57.46
2019-02-09T01:01:25.296Z,57.49
2019-02-09T01:03:56.518Z,57.51
2019-02-09T01:06:27.645Z,57.48
2019-02-09T01:08:58.818Z,57.45
2019-02-09T01:11:29.987Z,57.38
2019-02-09T01:14:01.152Z,57.45
2019-02-09T01:16:32.320Z,57.41
2019-02-09T01:19:03.939Z,57.39
2019-02-09T01:21:35.169Z,57.38
2019-02-09T01:24:06.335Z,57.30
2019-02-09T01:26:37.499Z,57.33
2019-02-09T01:29:08.614Z,57.28
2019-02-09T01:31:39.806Z,57.24
2019-02-09T01:34:11.062Z,57.19
2019-02-09T01:36:42.385Z,57.23
2019-02-09T01:39:13.475Z,57.19
2019-02-09T01:41:44.647Z,57.19
2019-02-09T01:44:15.847Z,57.12
2019-02-09T01:46:47.016Z,57.13
2019-02-09T01:49:18.213Z,57.14
2019-02-09T01:51:49.354Z,57.14
2019-02-09T01:54:20.605Z,57.06
2019-02-09T01:56:51.788Z,57.05
2019-02-09T01:59:22.968Z,56.97
2019-02-09T02:01:54.129Z,56.95
2019-02-09T02:04:25.318Z,56.91
2019-02-09T02:06:56.501Z,56.87
2019-02-09T02:09:27.619Z,56.90
2019-02-09T02:11:58.818Z,56.85
2019-02-09T02:14:29.972Z,56.86
2019-02-09T02:17:01.141Z,56.83
2019-02-09T02:19:32.298Z,56.79
2019-02-09T02:22:03.421Z,56.77
2019-02-09T02:24:34.604Z,56.77
2019-02-09T02:27:05.784Z,56.75
2019-02-09T02:29:37.014Z,56.75
2019-02-09T02:32:08.115Z,56.67
2019-02-09T02:34:39.473Z,56.62
2019-02-09T02:37:10.685Z,56.71
2019-02-09T02:39:41.844Z,56.73
2019-02-09T02:42:13.032Z,56.73
2019-02-09T02:44:44.266Z,56.69
2019-02-09T02:47:15.474Z,56.54
2019-02-09T02:49:46.663Z,56.43
2019-02-09T02:52:17.821Z,56.52
2019-02-09T02:54:48.971Z,56.67
2019-02-09T02:57:20.744Z,56.62
2019-02-09T02:59:51.850Z,56.49
2019-02-09T03:02:23.037Z,56.50
2019-02-09T03:04:54.172Z,56.54
2019-02-09T03:07:25.333Z,56.43
2019-02-09T03:09:56.600Z,56.46
2019-02-09T03:12:27.768Z,56.35
2019-02-09T03:14:58.986Z,56.06
2019-02-09T03:17:30.144Z,56.13
2019-02-09T03:20:01.296Z,56.12
2019-02-09T03:22:33.484Z,56.05
2019-02-09T03:25:05.323Z,56.03
2019-02-09T03:27:36.492Z,56.08
2019-02-09T03:30:08.865Z,56.02
2019-02-09T03:32:40.073Z,55.98
2019-02-09T03:35:11.396Z,55.87
2019-02-09T03:37:42.759Z,55.96
2019-02-09T03:40:16.012Z,55.88
2019-02-09T03:42:48.128Z,55.92
2019-02-09T03:45:21.662Z,55.88
2019-02-09T03:47:53.069Z,56.03
2019-02-09T03:50:25.304Z,55.92
2019-02-09T03:52:56.609Z,55.90
2019-02-09T03:55:27.905Z,55.84
2019-02-09T03:57:59.098Z,55.81
2019-02-09T04:00:31.235Z,55.87
2019-02-09T04:03:02.995Z,55.83
2019-02-09T04:05:34.166Z,55.73
2019-02-09T04:08:05.570Z,55.68
2019-02-09T04:10:36.806Z,55.61
2019-02-09T04:13:08.025Z,55.58
2019-02-09T04:15:39.277Z,55.67
2019-02-09T04:18:10.441Z,55.71
2019-02-09T04:20:41.594Z,55.52
2019-02-09T04:23:12.695Z,55.48
2019-02-09T04:25:43.882Z,55.52
2019-02-09T04:28:15.022Z,55.38
2019-02-09T04:30:46.191Z,55.41
2019-02-09T04:33:17.411Z,55.37
2019-02-09T04:35:48.534Z,55.37
2019-02-09T04:38:19.721Z,55.32
2019-02-09T04:40:51.013Z,55.27
2019-02-09T04:43:22.177Z,55.26
2019-02-09T04:45:53.347Z,55.23
2019-02-09T04:48:24.599Z,55.31
2019-02-09T04:50:55.795Z,55.37
2019-02-09T04:53:27.002Z,55.36
2019-02-09T04:55:58.199Z,55.44
2019-02-09T04:58:29.491Z,55.59
2019-02-09T05:01:00.842Z,55.74
2019-02-09T05:03:32.094Z,55.87
2019-02-09T05:06:03.235Z,56.01
2019-02-09T05:08:34.394Z,56.15
2019-02-09T05:11:05.568Z,56.23
2019-02-09T05:13:36.888Z,56.32
2019-02-09T05:16:08.083Z,56.41
2019-02-09T05:18:39.284Z,56.53
2019-02-09T05:21:10.518Z,56.71
2019-02-09T05:23:41.648Z,56.81
2019-02-09T05:26:12.887Z,57.07
2019-02-09T05:28:44.181Z,57.12
2019-02-09T05:31:22.924Z,57.34
2019-02-09T05:33:48.204Z,57.50
2019-02-09T05:36:19.386Z,57.73
2019-02-09T05:38:50.572Z,57.92
2019-02-09T05:41:21.732Z,58.02
2019-02-09T05:43:52.969Z,58.07
2019-02-09T05:46:24.077Z,58.21
2019-02-09T05:48:55.420Z,58.34
2019-02-09T05:51:26.897Z,58.36
2019-02-09T05:53:58.065Z,58.57
2019-02-09T05:56:29.253Z,58.49
2019-02-09T05:59:00.743Z,58.37
2019-02-09T06:01:32.727Z,58.50
2019-02-09T06:04:03.951Z,58.55
2019-02-09T06:06:35.216Z,58.61
2019-02-09T06:09:08.287Z,58.47
2019-02-09T06:11:39.457Z,58.55
2019-02-09T06:14:10.890Z,58.50
2019-02-09T06:16:42.122Z,58.59
2019-02-09T06:19:13.290Z,58.55
2019-02-09T06:21:44.504Z,58.60
2019-02-09T06:24:15.764Z,58.59
2019-02-09T06:26:47.194Z,58.85
2019-02-09T06:29:18.488Z,58.81
2019-02-09T06:31:49.641Z,58.94
2019-02-09T06:34:20.983Z,58.88
2019-02-09T06:36:52.189Z,58.80
2019-02-09T06:39:23.325Z,58.88
2019-02-09T06:41:54.671Z,58.89
2019-02-09T06:44:25.797Z,58.90
2019-02-09T06:46:57.047Z,59.08
2019-02-09T06:49:28.236Z,59.08
2019-02-09T06:51:59.432Z,59.01
2019-02-09T06:54:30.684Z,59.03
2019-02-09T06:57:01.984Z,59.18
2019-02-09T06:59:33.173Z,59.21
2019-02-09T07:02:04.645Z,59.29
2019-02-09T07:04:35.862Z,59.29
2019-02-09T07:07:07.118Z,59.29
2019-02-09T07:09:38.311Z,59.18
2019-02-09T07:12:09.585Z,59.16
2019-02-09T07:14:40.769Z,59.14
2019-02-09T07:17:12.059Z,59.07
2019-02-09T07:19:43.318Z,59.09
2019-02-09T07:22:14.488Z,59.12
2019-02-09T07:24:45.769Z,59.24
2019-02-09T07:27:17.042Z,59.08
2019-02-09T07:29:48.440Z,59.09
2019-02-09T07:32:19.698Z,58.98
2019-02-09T07:34:51.417Z,58.97
2019-02-09T07:37:22.675Z,58.94
2019-02-09T07:39:53.866Z,58.95
2019-02-09T07:42:25.268Z,58.88
2019-02-09T07:44:56.517Z,58.85
2019-02-09T07:47:27.735Z,58.88
2019-02-09T07:49:59.064Z,58.85
2019-02-09T07:52:30.500Z,58.89
2019-02-09T07:55:01.702Z,58.93
2019-02-09T07:57:33.050Z,58.88
2019-02-09T08:00:04.639Z,58.93
2019-02-09T08:02:35.946Z,58.93
2019-02-09T08:05:07.439Z,59.03
2019-02-09T08:07:38.601Z,58.87
2019-02-09T08:10:12.832Z,58.90
2019-02-09T08:12:44.142Z,58.91
2019-02-09T08:15:18.381Z,58.95
2019-02-09T08:17:49.732Z,59.00
2019-02-09T08:20:22.037Z,58.99
2019-02-09T08:22:53.748Z,59.01
2019-02-09T08:25:26.414Z,58.92
2019-02-09T08:27:58.554Z,58.94
2019-02-09T08:30:32.417Z,58.95
2019-02-09T08:33:03.679Z,58.89
2019-02-09T08:35:34.867Z,58.91
2019-02-09T08:38:07.227Z,58.87
2019-02-09T08:40:38.400Z,58.80
2019-02-09T08:43:09.569Z,58.79
2019-02-09T08:45:40.800Z,58.73
2019-02-09T08:48:12.008Z,58.70
2019-02-09T08:50:46.565Z,58.65
2019-02-09T08:53:17.784Z,58.51
2019-02-09T08:55:48.908Z,58.33
2019-02-09T08:58:20.355Z,58.22
2019-02-09T09:00:51.710Z,58.12
2019-02-09T09:03:22.893Z,58.01
2019-02-09T09:05:54.093Z,57.86
2019-02-09T09:08:25.301Z,57.73
2019-02-09T09:10:56.523Z,57.56
2019-02-09T09:13:27.767Z,57.49
2019-02-09T09:16:00.468Z,57.55
2019-02-09T09:18:31.754Z,57.53
2019-02-09T09:21:03.930Z,57.48
2019-02-09T09:23:35.104Z,57.45
2019-02-09T09:26:06.359Z,57.27
2019-02-09T09:28:37.601Z,57.11
2019-02-09T09:31:08.919Z,57.05
2019-02-09T09:33:40.065Z,56.76
2019-02-09T09:36:11.264Z,56.69
2019-02-09T09:38:42.506Z,56.62
2019-02-09T09:41:13.700Z,55.92
2019-02-09T09:43:44.983Z,56.05
2019-02-09T09:46:16.183Z,54.74
2019-02-09T09:48:47.374Z,54.74
2019-02-09T09:51:18.574Z,54.56
2019-02-09T09:53:49.795Z,54.55
2019-02-09T09:56:21.010Z,54.69
2019-02-09T09:58:52.197Z,54.48
2019-02-09T10:01:23.513Z,54.20
2019-02-09T10:03:54.713Z,54.09
2019-02-09T10:06:25.901Z,54.35
2019-02-09T10:08:57.170Z,54.24
2019-02-09T10:11:28.400Z,53.79
2019-02-09T10:13:59.651Z,53.36
2019-02-09T10:16:30.842Z,53.25
2019-02-09T10:19:02.193Z,52.93
2019-02-09T10:21:33.479Z,53.17
2019-02-09T10:24:04.860Z,53.11
2019-02-09T10:26:36.205Z,52.88
2019-02-09T10:29:07.402Z,53.02
2019-02-09T10:31:39.921Z,52.90
2019-02-09T10:34:11.106Z,52.71
2019-02-09T10:36:42.391Z,52.73
2019-02-09T10:39:13.622Z,52.82
2019-02-09T10:41:44.845Z,52.64
2019-02-09T10:44:16.501Z,52.85
2019-02-09T10:46:47.727Z,52.72
2019-02-09T10:49:19.084Z,52.76
2019-02-09T10:51:50.269Z,52.74
2019-02-09T10:54:21.436Z,52.56
2019-02-09T10:56:52.644Z,52.35
2019-02-09T10:59:23.877Z,52.35
2019-02-09T11:01:55.153Z,52.48
2019-02-09T11:04:26.311Z,52.52
2019-02-09T11:06:57.537Z,52.43
2019-02-09T11:09:28.784Z,52.55
2019-02-09T11:12:00.118Z,52.97
2019-02-09T11:14:31.530Z,52.77
2019-02-09T11:17:02.813Z,53.52
2019-02-09T11:19:34.041Z,53.70
2019-02-09T11:22:05.403Z,53.88
2019-02-09T11:24:36.532Z,54.03
2019-02-09T11:27:07.728Z,54.10
2019-02-09T11:29:39.021Z,53.68
2019-02-09T11:32:10.304Z,53.37
2019-02-09T11:34:41.564Z,53.08
2019-02-09T11:37:13.011Z,53.08
2019-02-09T11:39:44.207Z,53.21
2019-02-09T11:42:15.463Z,53.24
2019-02-09T11:44:46.935Z,53.26
2019-02-09T11:47:18.098Z,52.94
2019-02-09T11:49:49.350Z,52.85
2019-02-09T11:52:22.168Z,52.62
2019-02-09T11:54:53.614Z,53.04
2019-02-09T11:57:24.817Z,52.60
2019-02-09T11:59:56.017Z,52.38
2019-02-09T12:02:27.192Z,52.39
2019-02-09T12:04:58.416Z,52.49
2019-02-09T12:07:29.627Z,52.31
2019-02-09T12:10:00.817Z,52.42
2019-02-09T12:12:32.532Z,52.16
2019-02-09T12:15:04.040Z,51.12
2019-02-09T12:17:35.235Z,51.38
2019-02-09T12:20:08.624Z,51.59
2019-02-09T12:22:39.802Z,50.52
2019-02-09T12:25:14.000Z,51.03
2019-02-09T12:27:45.300Z,51.37
2019-02-09T12:30:19.363Z,51.11
2019-02-09T12:32:50.560Z,50.91
2019-02-09T12:35:22.217Z,50.75
2019-02-09T12:37:53.375Z,50.48
2019-02-09T12:40:26.897Z,50.76
2019-02-09T12:42:58.146Z,50.51
2019-02-09T12:45:29.855Z,49.91
2019-02-09T12:48:02.146Z,49.94
2019-02-09T12:50:33.490Z,49.26
2019-02-09T12:53:04.897Z,49.54
2019-02-09T12:55:36.364Z,49.04
2019-02-09T12:58:07.858Z,49.13
2019-02-09T13:00:39.178Z,49.18
2019-02-09T13:03:18.773Z,49.24
2019-02-09T13:05:50.026Z,48.92
2019-02-09T13:08:21.335Z,48.66
2019-02-09T13:10:52.551Z,48.34
2019-02-09T13:13:23.858Z,48.08
2019-02-09T13:15:55.186Z,47.77
2019-02-09T13:18:26.391Z,47.85
2019-02-09T13:20:57.704Z,47.82
2019-02-09T13:23:29.024Z,47.56
2019-02-09T13:26:00.219Z,47.95
2019-02-09T13:28:31.445Z,48.17
2019-02-09T13:31:05.587Z,48.03
2019-02-09T13:33:39.266Z,48.18
2019-02-09T13:36:10.961Z,48.03
2019-02-09T13:38:42.275Z,48.16
2019-02-09T13:41:13.487Z,47.78
2019-02-09T13:43:44.732Z,47.89
2019-02-09T13:46:15.986Z,48.14
2019-02-09T13:48:47.281Z,48.26
2019-02-09T13:51:20.109Z,47.82
2019-02-09T13:53:51.312Z,47.43
2019-02-09T13:56:22.975Z,47.29
2019-02-09T13:58:54.273Z,47.48
2019-02-09T14:01:25.917Z,47.33
2019-02-09T14:03:57.362Z,47.30
2019-02-09T14:06:28.905Z,47.92
2019-02-09T14:09:00.444Z,47.63
2019-02-09T14:11:32.377Z,47.08
2019-02-09T14:14:03.770Z,47.22
2019-02-09T14:16:38.719Z,47.27
2019-02-09T14:19:10.174Z,47.26
2019-02-09T14:21:41.540Z,47.32
2019-02-09T14:24:12.822Z,47.10
2019-02-09T14:26:44.120Z,47.10
2019-02-09T14:29:15.325Z,47.26
2019-02-09T14:31:46.549Z,47.18
2019-02-09T14:34:17.815Z,47.18
2019-02-09T14:36:49.175Z,47.29
2019-02-09T14:39:20.341Z,47.17
2019-02-09T14:41:51.791Z,47.11
2019-02-09T14:44:23.044Z,47.20
2019-02-09T14:46:54.298Z,47.09
2019-02-09T14:49:25.682Z,46.91
2019-02-09T14:51:57.001Z,46.93
2019-02-09T14:54:28.433Z,46.84
2019-02-09T14:56:59.750Z,47.07
2019-02-09T14:59:31.471Z,47.22
2019-02-09T15:02:03.994Z,46.94
2019-02-09T15:04:35.521Z,46.72
2019-02-09T15:07:06.856Z,47.02
2019-02-09T15:09:39.145Z,47.09
2019-02-09T15:12:10.518Z,47.13
2019-02-09T15:14:41.741Z,46.99
2019-02-09T15:17:13.010Z,47.15
2019-02-09T15:19:44.286Z,47.00
2019-02-09T15:22:15.528Z,47.25
2019-02-09T15:24:46.726Z,47.18
2019-02-09T15:27:19.173Z,47.19
2019-02-09T15:29:50.385Z,46.97
2019-02-09T15:32:21.728Z,47.21
2019-02-09T15:34:52.887Z,47.20
2019-02-09T15:37:24.259Z,47.26
2019-02-09T15:39:55.539Z,47.06
2019-02-09T15:42:26.850Z,47.34
2019-02-09T15:44:59.165Z,47.47
2019-02-09T15:47:31.495Z,47.59
2019-02-09T15:50:02.803Z,47.60
2019-02-09T15:52:34.022Z,47.64
2019-02-09T15:55:05.626Z,47.75
2019-02-09T15:57:36.794Z,47.80
2019-02-09T16:00:14.197Z,47.65
2019-02-09T16:02:46.248Z,47.75
2019-02-09T16:05:19.171Z,47.86
2019-02-09T16:07:50.538Z,47.76
2019-02-09T16:10:22.133Z,47.78
2019-02-09T16:12:53.765Z,47.83
2019-02-09T16:15:26.703Z,47.86
2019-02-09T16:17:58.185Z,47.82
2019-02-09T16:20:29.786Z,47.83
2019-02-09T16:23:01.499Z,47.89
2019-02-09T16:25:33.020Z,47.85
2019-02-09T16:28:04.566Z,47.88
2019-02-09T16:30:37.768Z,47.91
2019-02-09T16:33:09.396Z,48.01
2019-02-09T16:35:41.642Z,50.26
2019-02-09T16:38:13.313Z,51.66
2019-02-09T16:40:44.703Z,52.21
2019-02-09T16:43:16.216Z,52.74
2019-02-09T16:45:47.816Z,53.74
2019-02-09T16:48:19.391Z,53.95
2019-02-09T16:50:51.840Z,54.32
2019-02-09T16:53:23.674Z,54.61
2019-02-09T16:55:55.203Z,55.02
2019-02-09T16:58:26.658Z,54.71
2019-02-09T17:00:58.387Z,55.03
2019-02-09T17:03:30.057Z,55.17
2019-02-09T17:06:01.576Z,55.05
2019-02-09T17:08:33.032Z,54.82
2019-02-09T17:11:04.416Z,54.87
2019-02-09T17:13:37.109Z,54.55
2019-02-09T17:16:08.367Z,54.47
2019-02-09T17:18:39.585Z,54.39
2019-02-09T17:21:10.847Z,54.13
2019-02-09T17:23:42.099Z,53.90
2019-02-09T17:26:14.974Z,53.78
2019-02-09T17:28:46.279Z,53.61
2019-02-09T17:31:17.590Z,53.51
2019-02-09T17:33:48.777Z,53.41
2019-02-09T17:36:19.945Z,53.29
2019-02-09T17:38:51.159Z,53.23
2019-02-09T17:41:22.383Z,53.21
2019-02-09T17:43:53.598Z,53.27
2019-02-09T17:46:24.812Z,53.26
2019-02-09T17:48:56.285Z,53.22
2019-02-09T17:51:27.990Z,53.29
2019-02-09T17:53:59.449Z,53.35
2019-02-09T17:56:30.882Z,53.43
2019-02-09T17:59:02.471Z,53.52
2019-02-09T18:01:33.710Z,53.50
2019-02-09T18:04:05.177Z,53.56
2019-02-09T18:06:36.488Z,53.59
2019-02-09T18:09:08.569Z,53.67
2019-02-09T18:11:39.732Z,53.64
2019-02-09T18:14:10.942Z,53.84
2019-02-09T18:16:42.289Z,53.87
2019-02-09T18:19:13.513Z,53.95
2019-02-09T18:21:44.697Z,54.12
2019-02-09T18:24:15.874Z,54.16
2019-02-09T18:26:47.072Z,54.18
2019-02-09T18:29:18.294Z,54.32
2019-02-09T18:31:49.449Z,54.33
2019-02-09T18:34:20.698Z,54.33
2019-02-09T18:36:51.989Z,54.41
2019-02-09T18:39:23.119Z,54.46
2019-02-09T18:41:54.287Z,54.48
2019-02-09T18:44:25.448Z,54.62
2019-02-09T18:46:56.617Z,54.60
2019-02-09T18:49:31.619Z,54.68
2019-02-09T18:52:03.263Z,54.72
2019-02-09T18:54:34.470Z,54.77
2019-02-09T18:57:05.704Z,54.77
2019-02-09T18:59:36.967Z,54.82
2019-02-09T19:02:09.895Z,54.92
2019-02-09T19:04:41.122Z,54.97
2019-02-09T19:07:12.373Z,55.09
2019-02-09T19:09:43.589Z,54.98
2019-02-09T19:12:14.860Z,54.94
2019-02-09T19:14:46.214Z,55.05
2019-02-09T19:17:17.519Z,55.02
2019-02-09T19:19:48.701Z,55.07
2019-02-09T19:22:20.519Z,55.00
2019-02-09T19:24:51.910Z,55.03
2019-02-09T19:27:23.125Z,54.95
2019-02-09T19:29:54.303Z,54.93
2019-02-09T19:32:25.639Z,54.95
2019-02-09T19:34:56.855Z,54.96
2019-02-09T19:37:28.164Z,54.93
2019-02-09T19:39:59.440Z,54.97
2019-02-09T19:42:31.263Z,55.00
2019-02-09T19:45:02.486Z,55.01
2019-02-09T19:47:33.735Z,55.00
2019-02-09T19:50:05.962Z,55.01
2019-02-09T19:53:27.305Z,55.01
2019-02-09T19:55:59.717Z,54.99
2019-02-09T19:58:31.030Z,54.96
2019-02-09T20:01:02.381Z,54.96
2019-02-09T20:03:38.961Z,54.96
2019-02-09T20:06:10.199Z,54.98
2019-02-09T20:08:41.632Z,55.08
2019-02-09T20:11:13.791Z,55.10
2019-02-09T20:13:45.104Z,55.01
2019-02-09T20:16:16.481Z,55.03
2019-02-09T20:18:47.860Z,54.99
2019-02-09T20:21:19.165Z,54.96
2019-02-09T20:23:50.410Z,54.90
2019-02-09T20:26:21.632Z,54.87
2019-02-09T20:28:52.999Z,54.84
2019-02-09T20:31:24.247Z,54.77
2019-02-09T20:33:55.534Z,54.72
2019-02-09T20:36:26.802Z,54.68
2019-02-09T20:39:04.503Z,54.61
2019-02-09T20:41:31.738Z,54.57
2019-02-09T20:44:03.135Z,54.52
2019-02-09T20:46:34.573Z,54.49
2019-02-09T20:49:06.072Z,54.46
2019-02-09T20:51:37.372Z,54.40
2019-02-09T20:54:08.674Z,54.39
2019-02-09T20:56:39.923Z,54.38
2019-02-09T20:59:11.162Z,54.39
2019-02-09T21:01:42.383Z,54.37
2019-02-09T21:04:14.021Z,54.35
2019-02-09T21:06:45.346Z,54.38
2019-02-09T21:09:16.728Z,54.39
2019-02-09T21:11:47.932Z,54.42
2019-02-09T21:14:19.317Z,54.40
2019-02-09T21:16:51.750Z,54.38
2019-02-09T21:19:23.462Z,54.41
2019-02-09T21:21:54.810Z,54.39
2019-02-09T21:24:26.088Z,54.39
2019-02-09T21:26:57.276Z,54.40
2019-02-09T21:29:29.630Z,54.41
2019-02-09T21:32:00.847Z,54.44
2019-02-09T21:34:32.081Z,54.44
2019-02-09T21:37:03.474Z,54.45
2019-02-09T21:39:34.828Z,54.45
2019-02-09T21:42:06.110Z,54.46
2019-02-09T21:44:37.842Z,54.51
2019-02-09T21:47:09.126Z,54.50
2019-02-09T21:49:40.551Z,54.50
2019-02-09T21:52:11.925Z,54.54
2019-02-09T21:54:43.157Z,54.53
2019-02-09T21:57:14.407Z,54.51
2019-02-09T21:59:45.826Z,54.50
2019-02-09T22:02:17.014Z,54.47
2019-02-09T22:04:48.197Z,54.44
2019-02-09T22:07:19.657Z,54.38
2019-02-09T22:09:50.829Z,54.35
2019-02-09T22:12:22.030Z,54.32
2019-02-09T22:14:53.237Z,54.32
2019-02-09T22:17:24.607Z,54.28
2019-02-09T22:19:55.938Z,54.27
2019-02-09T22:22:27.188Z,54.25
2019-02-09T22:24:58.696Z,54.24
2019-02-09T22:27:30.120Z,54.24
2019-02-09T22:30:01.416Z,54.23
2019-02-09T22:32:32.671Z,54.25
2019-02-09T22:35:04.088Z,54.29
2019-02-09T22:37:35.442Z,54.30
2019-02-09T22:40:09.967Z,54.30
2019-02-09T22:42:41.203Z,54.34
2019-02-09T22:45:12.909Z,54.35
2019-02-09T22:47:44.259Z,54.38
2019-02-09T22:50:19.237Z,54.42
2019-02-09T22:52:50.569Z,54.46
2019-02-09T22:55:22.172Z,54.50
2019-02-09T22:57:53.481Z,54.57
2019-02-09T23:00:52.798Z,54.59
2019-02-09T23:03:31.071Z,54.63
2019-02-09T23:06:41.174Z,54.67
2019-02-09T23:09:16.685Z,54.68
2019-02-09T23:11:48.017Z,54.70
2019-02-09T23:14:19.321Z,54.72
2019-02-09T23:16:51.049Z,54.74
2019-02-09T23:19:22.561Z,54.77
2019-02-09T23:21:53.848Z,54.78
2019-02-09T23:24:25.039Z,54.81
2019-02-09T23:26:56.306Z,54.85
2019-02-09T23:29:27.479Z,54.87
2019-02-09T23:31:58.816Z,54.88
2019-02-09T23:34:30.043Z,54.94
2019-02-09T23:37:01.262Z,54.96
2019-02-09T23:39:32.515Z,54.98
2019-02-09T23:42:03.734Z,55.02
2019-02-09T23:44:35.989Z,55.05
2019-02-09T23:47:07.150Z,55.07
2019-02-09T23:49:38.405Z,55.10
2019-02-09T23:52:09.589Z,55.14
2019-02-09T23:54:40.774Z,55.17
2019-02-09T23:57:11.998Z,55.22
2019-02-09T23:59:43.226Z,55.27
